createdAt,value
2018-03-01T21:36:20.566Z,44.86
2018-03-01T21:38:48.235Z,44.78
2018-03-01T21:41:15.948Z,44.65
2018-03-01T21:43:43.942Z,44.60
2018-03-01T21:46:15.377Z,44.44
2018-03-01T21:48:43.093Z,44.48
2018-03-01T21:51:10.859Z,44.61
2018-03-01T21:53:38.543Z,44.47
2018-03-01T21:56:06.455Z,44.64
2018-03-01T21:58:34.109Z,44.81
2018-03-01T22:01:01.954Z,44.44
2018-03-01T22:03:29.782Z,44.28
2018-03-01T22:05:57.494Z,44.42
2018-03-01T22:08:25.179Z,44.58
2018-03-01T22:10:52.850Z,44.69
2018-03-01T22:13:20.626Z,44.37
2018-03-01T22:15:48.286Z,44.47
2018-03-01T22:18:15.995Z,44.47
2018-03-01T22:20:43.707Z,44.41
2018-03-01T22:23:11.434Z,44.88
2018-03-01T22:25:39.108Z,44.77
2018-03-01T22:28:06.808Z,44.71
2018-03-01T22:30:34.482Z,44.84
2018-03-01T22:33:02.398Z,44.56
2018-03-01T22:35:30.075Z,44.84
2018-03-01T22:37:57.787Z,44.95
2018-03-01T22:40:25.457Z,44.90
2018-03-01T22:42:53.167Z,45.02
2018-03-01T22:45:21.032Z,45.00
2018-03-01T22:47:48.719Z,45.11
2018-03-01T22:50:16.448Z,45.17
2018-03-01T22:52:44.239Z,45.13
2018-03-01T22:55:11.995Z,45.38
2018-03-01T22:57:39.703Z,45.35
2018-03-01T23:00:07.486Z,45.40
2018-03-01T23:02:35.205Z,45.42
2018-03-01T23:05:03.022Z,45.38
2018-03-01T23:07:30.870Z,45.70
2018-03-01T23:09:58.544Z,45.85
2018-03-01T23:12:26.242Z,45.88
2018-03-01T23:14:53.959Z,45.88
2018-03-01T23:17:21.678Z,45.85
2018-03-01T23:19:49.346Z,46.18
2018-03-01T23:22:17.207Z,46.35
2018-03-01T23:24:44.895Z,46.27
2018-03-01T23:27:12.734Z,46.32
2018-03-01T23:29:40.399Z,46.37
2018-03-01T23:32:08.110Z,46.05
2018-03-01T23:34:35.783Z,46.32
2018-03-01T23:37:03.530Z,46.48
2018-03-01T23:39:31.202Z,46.52
2018-03-01T23:41:58.902Z,46.49
2018-03-01T23:44:26.574Z,46.58
2018-03-01T23:46:54.255Z,46.57
2018-03-01T23:49:21.923Z,46.40
2018-03-01T23:51:49.618Z,46.56
2018-03-01T23:54:17.311Z,46.41
2018-03-01T23:56:45.007Z,46.45
2018-03-01T23:59:12.682Z,46.73
